Time;durP1;ratioP1;P1;durP2;ratioP2;P2;SDS_P1;SDS_P2;PMS_P1;PMS_P2;Temp;Humidity;BMP_temperature;BMP_pressure;BME280_temperature;BME280_humidity;BME280_pressure;Samples;Min_cycle;Max_cycle;Signal;HPM_P1;HPM_P2
2023/01/08 00:01:08;;;;;;;35.53;26.47;;;;;;;3.89;100.00;99266.31;6251920;22;20577;-79
2023/01/08 00:03:36;;;;;;;78.57;28.70;;;;;;;3.99;100.00;99266.84;6279401;22;20235;-80
2023/01/08 00:06:05;;;;;;;61.30;26.53;;;;;;;4.00;100.00;99257.06;6278705;22;20275;-79
2023/01/08 00:08:32;;;;;;;43.87;26.97;;;;;;;4.02;100.00;99257.66;6265240;22;20268;-79
2023/01/08 00:10:59;;;;;;;93.30;27.17;;;;;;;4.04;100.00;99262.81;6278581;22;20215;-78
2023/01/08 00:13:26;;;;;;;42.30;28.40;;;;;;;3.98;100.00;99267.84;6278118;22;20199;-79
2023/01/08 00:15:53;;;;;;;62.53;37.00;;;;;;;3.95;100.00;99278.00;6278089;22;20204;-80
2023/01/08 00:18:20;;;;;;;40.80;29.03;;;;;;;3.88;100.00;99269.94;6250869;22;20227;-79
2023/01/08 00:20:47;;;;;;;35.00;27.17;;;;;;;3.92;100.00;99278.34;6226362;22;20203;-79
2023/01/08 00:23:15;;;;;;;43.30;27.87;;;;;;;3.90;100.00;99265.31;6279834;22;20184;-79
2023/01/08 00:25:42;;;;;;;78.67;29.33;;;;;;;3.99;100.00;99272.13;6279423;22;20183;-79
2023/01/08 00:28:09;;;;;;;58.50;27.10;;;;;;;4.05;100.00;99262.63;6236676;22;20228;-79
2023/01/08 00:30:36;;;;;;;61.73;25.60;;;;;;;4.05;100.00;99259.97;6251951;22;20204;-79
2023/01/08 00:33:03;;;;;;;33.67;25.13;;;;;;;3.98;100.00;99264.34;6252408;22;20595;-80
2023/01/08 00:35:29;;;;;;;58.37;36.83;;;;;;;3.91;100.00;99258.16;6244468;22;20282;-79
2023/01/08 00:37:56;;;;;;;75.83;47.87;;;;;;;3.92;100.00;99249.19;6245711;22;20204;-79
2023/01/08 00:40:23;;;;;;;46.60;31.70;;;;;;;3.91;100.00;99252.88;6277953;22;20658;-79
2023/01/08 00:42:49;;;;;;;39.23;28.00;;;;;;;3.89;100.00;99249.56;6278334;22;20208;-79
2023/01/08 00:45:16;;;;;;;37.07;27.03;;;;;;;3.95;100.00;99262.09;6278675;22;20668;-79
2023/01/08 00:47:42;;;;;;;34.93;26.50;;;;;;;3.98;100.00;99261.72;6278126;22;20215;-79
2023/01/08 00:50:09;;;;;;;36.40;27.30;;;;;;;3.97;100.00;99260.88;6277700;22;20691;-80
2023/01/08 00:52:36;;;;;;;33.30;25.43;;;;;;;3.97;100.00;99257.41;6278402;22;20518;-79
2023/01/08 00:55:03;;;;;;;46.57;26.27;;;;;;;3.99;100.00;99258.06;6252369;22;20184;-79
2023/01/08 00:57:34;;;;;;;39.73;26.73;;;;;;;4.03;100.00;99248.72;6278343;22;20307;-79
2023/01/08 01:00:02;;;;;;;37.27;25.70;;;;;;;4.03;100.00;99247.91;6278460;22;20215;-79
2023/01/08 01:02:28;;;;;;;40.40;24.60;;;;;;;3.98;100.00;99256.41;6250532;22;20192;-79
2023/01/08 01:04:55;;;;;;;37.97;24.40;;;;;;;3.97;100.00;99263.53;6278365;22;20234;-79
2023/01/08 01:07:22;;;;;;;33.10;25.60;;;;;;;4.03;100.00;99266.44;6278015;22;20660;-80
2023/01/08 01:09:48;;;;;;;33.27;24.70;;;;;;;4.03;100.00;99264.63;6278121;22;20203;-79
2023/01/08 01:12:15;;;;;;;49.00;23.57;;;;;;;4.02;100.00;99260.31;6277973;22;20280;-79
2023/01/08 01:14:41;;;;;;;35.57;22.97;;;;;;;3.95;100.00;99248.84;6277489;22;20683;-79
2023/01/08 01:17:10;;;;;;;35.13;23.23;;;;;;;4.01;100.00;99240.16;6278604;22;20676;-78
2023/01/08 01:19:37;;;;;;;32.73;22.50;;;;;;;3.97;100.00;99252.09;6251298;22;20212;-79
2023/01/08 01:22:04;;;;;;;29.37;22.23;;;;;;;3.95;100.00;99249.66;6251129;22;20279;-78
2023/01/08 01:24:31;;;;;;;31.43;22.57;;;;;;;3.95;100.00;99251.50;6226532;22;20203;-79
2023/01/08 01:26:57;;;;;;;30.60;22.33;;;;;;;3.93;100.00;99249.00;6277700;22;20184;-79
2023/01/08 01:29:24;;;;;;;27.53;22.13;;;;;;;3.95;100.00;99254.97;6277852;22;20334;-79
2023/01/08 01:31:56;;;;;;;30.93;22.13;;;;;;;3.92;100.00;99254.50;6252340;22;20258;-80
2023/01/08 01:34:22;;;;;;;28.17;22.00;;;;;;;3.93;100.00;99258.78;6278459;22;20204;-79
2023/01/08 01:36:49;;;;;;;35.13;22.97;;;;;;;3.94;100.00;99250.66;6277681;22;20633;-79
2023/01/08 01:39:16;;;;;;;28.33;21.90;;;;;;;3.93;100.00;99242.88;6251320;22;20227;-79
2023/01/08 01:41:44;;;;;;;30.83;21.97;;;;;;;3.89;100.00;99242.44;6277982;22;20280;-79
2023/01/08 01:44:44;;;;;;;29.43;21.27;;;;;;;3.95;100.00;99240.88;6277429;22;20228;-80
2023/01/08 01:47:17;;;;;;;31.40;21.63;;;;;;;3.93;100.00;99234.94;6278192;22;20227;-79
2023/01/08 01:49:49;;;;;;;35.23;22.13;;;;;;;3.89;100.00;99225.72;6278958;22;20230;-79
2023/01/08 01:52:16;;;;;;;33.47;23.20;;;;;;;3.80;100.00;99232.13;6124638;22;20211;-79
2023/01/08 01:54:43;;;;;;;29.33;22.07;;;;;;;3.80;100.00;99240.09;6278632;22;20697;-79
2023/01/08 01:57:09;;;;;;;30.37;22.00;;;;;;;3.82;100.00;99238.91;6278522;22;20637;-79
2023/01/08 01:59:36;;;;;;;28.40;21.90;;;;;;;3.84;100.00;99236.06;6251435;22;20203;-79
2023/01/08 02:02:02;;;;;;;35.63;22.13;;;;;;;3.77;100.00;99225.41;6277889;22;20220;-78
2023/01/08 02:04:29;;;;;;;34.80;21.93;;;;;;;3.76;100.00;99228.22;6278337;22;20200;-79
2023/01/08 02:07:12;;;;;;;26.83;21.73;;;;;;;3.75;100.00;99230.03;6278369;22;20203;-80
2023/01/08 02:10:05;;;;;;;29.70;22.07;;;;;;;3.71;100.00;99218.19;6251037;22;20215;-79
2023/01/08 02:12:44;;;;;;;30.03;22.43;;;;;;;3.74;100.00;99225.75;6277387;22;20204;-79
2023/01/08 02:15:26;;;;;;;26.70;22.17;;;;;;;3.78;100.00;99228.88;6252210;22;20211;-79
2023/01/08 02:18:12;;;;;;;30.83;22.13;;;;;;;3.81;100.00;99226.66;6253888;22;20211;-80
2023/01/08 02:20:42;;;;;;;36.47;22.47;;;;;;;3.68;100.00;99217.72;6254030;22;20203;-79
2023/01/08 02:23:45;;;;;;;41.17;21.93;;;;;;;3.71;100.00;99222.66;6254157;22;20207;-79
2023/01/08 02:26:11;;;;;;;29.67;22.07;;;;;;;3.58;100.00;99222.50;6280406;22;20194;-80
2023/01/08 02:29:08;;;;;;;38.67;22.37;;;;;;;3.61;100.00;99224.75;6254244;22;20180;-80
2023/01/08 02:31:37;;;;;;;36.50;23.07;;;;;;;3.53;100.00;99213.28;6253718;22;20265;-79
2023/01/08 02:34:04;;;;;;;53.43;22.10;;;;;;;3.57;100.00;99207.59;6252889;22;20206;-80
2023/01/08 02:36:49;;;;;;;39.47;22.23;;;;;;;3.55;100.00;99211.25;6280473;22;20279;-80
2023/01/08 02:39:53;;;;;;;34.07;23.40;;;;;;;3.54;100.00;99219.41;6252938;22;20524;-79
2023/01/08 02:42:39;;;;;;;40.80;25.73;;;;;;;3.63;100.00;99222.75;6260422;22;20203;-80
2023/01/08 02:45:21;;;;;;;49.13;26.00;;;;;;;3.60;100.00;99217.81;6235448;22;20220;-79
2023/01/08 02:48:01;;;;;;;57.03;26.80;;;;;;;3.47;100.00;99216.66;6279017;22;20242;-80
2023/01/08 02:50:40;;;;;;;61.97;27.37;;;;;;;3.54;100.00;99219.41;6253203;22;20584;-80
2023/01/08 02:53:23;;;;;;;46.77;26.50;;;;;;;3.44;100.00;99211.72;6252556;22;20586;-79
2023/01/08 02:56:10;;;;;;;54.83;25.63;;;;;;;3.46;100.00;99203.59;6251900;22;20279;-79
2023/01/08 02:58:38;;;;;;;44.37;26.53;;;;;;;3.40;100.00;99191.94;6252408;22;20204;-80
2023/01/08 03:01:07;;;;;;;55.10;26.67;;;;;;;3.36;100.00;99200.44;6252499;22;20200;-82
2023/01/08 03:03:35;;;;;;;46.77;27.00;;;;;;;3.38;100.00;99206.34;6280140;22;20212;-80
2023/01/08 03:06:05;;;;;;;54.90;27.13;;;;;;;3.36;100.00;99193.28;6252577;22;20504;-78
2023/01/08 03:08:38;;;;;;;46.30;26.83;;;;;;;3.37;100.00;99197.56;6279681;22;20258;-80
2023/01/08 03:11:07;;;;;;;51.20;27.00;;;;;;;3.32;100.00;99191.19;6253238;22;20279;-80
2023/01/08 03:13:43;;;;;;;48.43;26.90;;;;;;;3.24;100.00;99189.47;6252800;22;20215;-80
2023/01/08 03:16:16;;;;;;;47.23;26.70;;;;;;;3.29;100.00;99191.56;6279378;22;20253;-80
2023/01/08 03:18:48;;;;;;;40.60;27.10;;;;;;;3.24;100.00;99193.94;6279747;22;20211;-80
2023/01/08 03:21:17;;;;;;;40.67;25.83;;;;;;;3.27;100.00;99188.25;6253104;22;20208;-80
2023/01/08 03:23:44;;;;;;;48.97;26.67;;;;;;;3.27;100.00;99185.59;6252406;22;20211;-80
2023/01/08 03:26:12;;;;;;;57.40;26.20;;;;;;;3.28;100.00;99180.13;6253903;22;20711;-80
2023/01/08 03:28:44;;;;;;;40.40;26.17;;;;;;;3.26;100.00;99184.81;6253468;22;20207;-80
2023/01/08 03:31:14;;;;;;;40.83;25.27;;;;;;;3.19;100.00;99175.13;6228477;22;20161;-79
2023/01/08 03:33:42;;;;;;;52.23;25.10;;;;;;;3.25;100.00;99171.75;6253554;22;20246;-80
2023/01/08 03:36:12;;;;;;;45.60;25.53;;;;;;;3.15;100.00;99161.44;6236238;22;20204;-79
2023/01/08 03:38:42;;;;;;;48.83;26.53;;;;;;;3.08;100.00;99153.41;6255286;22;20204;-80
2023/01/08 03:41:12;;;;;;;47.20;25.23;;;;;;;3.11;100.00;99146.94;6279284;22;20214;-80
2023/01/08 03:43:39;;;;;;;49.60;24.73;;;;;;;3.12;100.00;99147.75;6252356;22;20200;-80
2023/01/08 03:46:08;;;;;;;40.83;26.37;;;;;;;3.06;100.00;99147.47;6251547;22;20207;-78
2023/01/08 03:48:37;;;;;;;39.10;26.00;;;;;;;3.01;100.00;99149.03;6252185;22;20595;-79
2023/01/08 03:51:08;;;;;;;43.00;26.10;;;;;;;3.05;100.00;99159.06;6252048;22;20223;-79
2023/01/08 03:53:35;;;;;;;40.23;26.53;;;;;;;3.05;100.00;99161.72;6250544;22;20211;-80
2023/01/08 03:56:01;;;;;;;40.47;26.00;;;;;;;3.11;100.00;99154.88;6277756;22;20692;-79
2023/01/08 03:58:28;;;;;;;38.57;25.30;;;;;;;3.08;100.00;99152.56;6278935;22;20257;-80
2023/01/08 04:00:55;;;;;;;36.67;25.23;;;;;;;3.11;100.00;99146.94;6278812;22;20211;-79
2023/01/08 04:03:23;;;;;;;38.47;25.27;;;;;;;3.13;100.00;99144.91;6278462;22;20208;-80
2023/01/08 04:05:50;;;;;;;34.53;23.97;;;;;;;3.16;100.00;99143.72;6227008;22;20208;-80
2023/01/08 04:08:16;;;;;;;38.17;24.73;;;;;;;3.12;100.00;99142.47;6278446;22;20683;-79
2023/01/08 04:10:43;;;;;;;41.20;25.63;;;;;;;3.07;100.00;99143.00;6278997;22;20675;-79
2023/01/08 04:13:09;;;;;;;38.93;23.97;;;;;;;3.09;100.00;99143.63;6278922;22;20204;-79
2023/01/08 04:15:36;;;;;;;38.03;25.10;;;;;;;3.09;100.00;99144.47;6278904;22;20204;-80
2023/01/08 04:18:03;;;;;;;36.90;24.30;;;;;;;3.08;100.00;99145.47;6277633;22;20199;-79
2023/01/08 04:20:29;;;;;;;37.53;24.33;;;;;;;3.10;100.00;99145.28;6278426;22;20207;-80
2023/01/08 04:22:56;;;;;;;36.33;24.10;;;;;;;3.09;100.00;99146.28;6278979;22;20204;-80
2023/01/08 04:25:22;;;;;;;39.93;24.37;;;;;;;3.17;100.00;99143.56;6278510;22;20211;-80
2023/01/08 04:27:49;;;;;;;38.47;24.83;;;;;;;3.13;100.00;99136.97;6278862;22;20211;-80
2023/01/08 04:30:16;;;;;;;36.23;24.43;;;;;;;3.09;100.00;99138.34;6276853;22;20204;-82
2023/01/08 04:32:42;;;;;;;38.27;24.87;;;;;;;3.11;100.00;99133.69;6251779;22;20215;-79
2023/01/08 04:35:09;;;;;;;39.80;25.63;;;;;;;3.17;100.00;99132.16;6278758;22;20206;-80
2023/01/08 04:37:36;;;;;;;39.67;24.57;;;;;;;3.15;100.00;99128.84;6278194;22;20224;-80
2023/01/08 04:40:03;;;;;;;42.10;23.47;;;;;;;3.18;100.00;99129.28;6278136;22;20235;-81
2023/01/08 04:42:29;;;;;;;45.63;25.20;;;;;;;3.22;100.00;99135.06;6278481;22;20199;-80
2023/01/08 04:44:56;;;;;;;43.53;24.10;;;;;;;3.21;100.00;99141.34;6252029;22;20211;-80
2023/01/08 04:47:23;;;;;;;43.53;24.03;;;;;;;3.17;100.00;99140.91;6264491;22;20208;-79
2023/01/08 04:49:49;;;;;;;42.70;24.70;;;;;;;3.12;100.00;99147.75;6251748;22;20214;-79
2023/01/08 04:52:16;;;;;;;41.87;24.77;;;;;;;3.03;100.00;99147.03;6278339;22;20204;-80
2023/01/08 04:54:42;;;;;;;43.47;24.57;;;;;;;3.06;100.00;99136.06;6278843;22;20716;-79
2023/01/08 04:57:09;;;;;;;49.83;23.50;;;;;;;3.06;100.00;99136.91;6278721;22;20208;-81
2023/01/08 04:59:35;;;;;;;38.33;24.00;;;;;;;3.07;100.00;99130.59;6278173;22;20214;-80
2023/01/08 05:02:02;;;;;;;41.23;24.23;;;;;;;3.08;100.00;99131.41;6277639;22;20211;-79
2023/01/08 05:04:29;;;;;;;43.60;23.90;;;;;;;3.09;100.00;99133.03;6277881;22;20199;-80
2023/01/08 05:06:56;;;;;;;41.73;24.33;;;;;;;3.15;100.00;99121.72;6278391;22;20693;-80
2023/01/08 05:09:22;;;;;;;50.93;24.13;;;;;;;3.13;100.00;99120.28;6278086;22;20210;-80
2023/01/08 05:11:49;;;;;;;44.93;22.67;;;;;;;3.13;100.00;99122.94;6278553;22;20728;-80
2023/01/08 05:14:15;;;;;;;49.10;22.13;;;;;;;3.07;100.00;99112.06;6277553;22;20680;-79
2023/01/08 05:16:42;;;;;;;35.43;21.67;;;;;;;3.05;100.00;99113.25;6224717;23;20215;-82
2023/01/08 05:19:09;;;;;;;39.70;21.47;;;;;;;3.14;100.00;99109.50;6224538;23;20545;-79
2023/01/08 05:21:35;;;;;;;40.23;21.53;;;;;;;3.03;100.00;99110.78;6123629;22;20207;-79
2023/01/08 05:24:02;;;;;;;45.87;21.80;;;;;;;2.97;100.00;99105.41;6072259;22;20211;-79
2023/01/08 05:26:29;;;;;;;41.70;22.07;;;;;;;3.03;100.00;99107.34;6132449;23;20207;-79
2023/01/08 05:28:56;;;;;;;38.37;21.87;;;;;;;2.96;100.00;99109.88;6102258;23;20563;-79
2023/01/08 05:31:24;;;;;;;38.33;22.37;;;;;;;2.95;100.00;99110.88;6123342;22;20553;-79
2023/01/08 05:33:50;;;;;;;44.00;22.73;;;;;;;2.94;100.00;99116.38;6123662;22;20265;-79
2023/01/08 05:36:17;;;;;;;34.40;21.10;;;;;;;2.93;100.00;99115.56;6123443;22;20211;-79
2023/01/08 05:38:44;;;;;;;34.77;21.70;;;;;;;2.89;100.00;99121.41;6224076;23;20221;-79
2023/01/08 05:41:10;;;;;;;41.67;21.90;;;;;;;2.94;100.00;99117.16;6224361;23;20207;-79
2023/01/08 05:43:37;;;;;;;33.73;21.13;;;;;;;2.90;100.00;99118.53;6191271;23;20689;-79
2023/01/08 05:46:04;;;;;;;39.13;22.40;;;;;;;2.94;100.00;99124.31;6141827;22;20211;-78
2023/01/08 05:48:33;;;;;;;38.57;22.67;;;;;;;2.95;100.00;99120.63;6123552;22;20208;-79
2023/01/08 05:51:00;;;;;;;35.10;21.27;;;;;;;2.93;100.00;99123.50;6122441;22;20294;-79
2023/01/08 05:53:26;;;;;;;32.57;21.07;;;;;;;2.88;100.00;99119.75;6124590;22;20218;-79
2023/01/08 05:56:00;;;;;;;36.87;21.73;;;;;;;2.90;100.00;99123.84;6224425;23;20282;-79
2023/01/08 05:58:27;;;;;;;34.20;20.67;;;;;;;2.99;100.00;99114.81;6123488;22;20215;-79
2023/01/08 06:00:54;;;;;;;34.63;21.17;;;;;;;2.84;100.00;99115.81;6224514;23;20211;-79
2023/01/08 06:03:21;;;;;;;40.37;21.67;;;;;;;2.93;100.00;99114.72;6123782;22;20218;-79
2023/01/08 06:05:48;;;;;;;35.20;21.90;;;;;;;2.88;100.00;99117.09;6098098;23;20215;-80
2023/01/08 06:08:16;;;;;;;32.30;20.63;;;;;;;2.87;100.00;99103.03;6124026;22;20610;-80
2023/01/08 06:10:43;;;;;;;38.17;22.00;;;;;;;2.92;100.00;99099.84;6123329;22;20208;-79
2023/01/08 06:13:09;;;;;;;37.67;21.87;;;;;;;2.92;100.00;99099.84;6123607;22;20208;-80
2023/01/08 06:15:38;;;;;;;37.60;23.07;;;;;;;2.89;100.00;99100.22;6195968;22;20348;-79
2023/01/08 06:18:04;;;;;;;63.97;37.70;;;;;;;2.91;100.00;99093.72;6249738;22;20204;-79
2023/01/08 06:20:31;;;;;;;44.90;26.47;;;;;;;2.85;100.00;99094.47;6277125;22;20199;-79
2023/01/08 06:22:58;;;;;;;44.90;28.77;;;;;;;2.92;100.00;99089.28;6252184;22;20202;-80
2023/01/08 06:25:25;;;;;;;42.23;26.53;;;;;;;2.93;100.00;99077.69;6277164;22;20230;-79
2023/01/08 06:27:51;;;;;;;40.50;22.20;;;;;;;2.93;100.00;99080.34;6277016;22;20206;-79
2023/01/08 06:30:18;;;;;;;40.97;25.50;;;;;;;2.89;100.00;99068.47;6250009;22;20206;-79
2023/01/08 06:32:45;;;;;;;42.27;23.53;;;;;;;2.92;100.00;99063.63;6278295;22;20180;-79
2023/01/08 06:35:11;;;;;;;38.97;22.17;;;;;;;2.88;100.00;99049.13;6278509;22;20540;-79
2023/01/08 06:37:38;;;;;;;42.20;21.80;;;;;;;2.90;100.00;99060.34;6250060;22;20214;-79
2023/01/08 06:40:05;;;;;;;38.23;22.33;;;;;;;2.84;100.00;99060.28;6277365;22;20218;-79
2023/01/08 06:42:32;;;;;;;38.20;20.70;;;;;;;2.84;100.00;99069.03;6277539;22;20656;-79
2023/01/08 06:44:58;;;;;;;44.13;22.00;;;;;;;2.78;100.00;99063.63;6277855;22;20204;-79
2023/01/08 06:47:25;;;;;;;33.73;20.93;;;;;;;2.69;100.00;99057.63;6277681;22;20203;-79
2023/01/08 06:49:51;;;;;;;37.90;21.13;;;;;;;2.73;100.00;99055.44;6277568;22;20628;-79
2023/01/08 06:52:18;;;;;;;32.63;20.40;;;;;;;2.70;100.00;99053.16;6276988;22;20657;-79
2023/01/08 06:54:45;;;;;;;35.27;21.07;;;;;;;2.70;100.00;99047.88;6250649;22;20223;-80
2023/01/08 06:57:11;;;;;;;41.70;23.67;;;;;;;2.67;100.00;99051.69;6277674;22;20211;-79
2023/01/08 06:59:38;;;;;;;43.30;21.60;;;;;;;2.69;100.00;99052.34;6277547;22;20283;-79
2023/01/08 07:02:04;;;;;;;34.77;21.53;;;;;;;2.69;100.00;99051.50;6278113;22;20211;-78
2023/01/08 07:04:31;;;;;;;40.10;20.60;;;;;;;2.67;100.00;99044.56;6278945;22;20261;-78
2023/01/08 07:06:58;;;;;;;44.30;22.33;;;;;;;2.64;100.00;99041.47;6271184;22;20529;-79
2023/01/08 07:09:25;;;;;;;37.53;24.83;;;;;;;2.60;100.00;99045.50;6278941;22;20200;-79
2023/01/08 07:11:51;;;;;;;39.30;22.20;;;;;;;2.55;100.00;99042.59;6278859;22;20676;-79
2023/01/08 07:14:18;;;;;;;40.93;19.83;;;;;;;2.56;100.00;99029.19;6278464;22;20649;-79
2023/01/08 07:16:44;;;;;;;35.67;20.40;;;;;;;2.64;100.00;99036.19;6277205;22;20712;-79
2023/01/08 07:19:11;;;;;;;43.00;24.07;;;;;;;2.53;100.00;99021.59;6251695;22;20199;-78
2023/01/08 07:21:38;;;;;;;40.40;22.83;;;;;;;2.61;100.00;99039.22;6279341;22;20200;-79
2023/01/08 07:24:06;;;;;;;37.17;21.63;;;;;;;2.69;100.00;99046.22;6277554;22;20204;-79
2023/01/08 07:26:33;;;;;;;34.30;21.93;;;;;;;2.66;100.00;99040.28;6279559;22;20212;-79
2023/01/08 07:29:00;;;;;;;32.87;21.43;;;;;;;2.74;100.00;99043.84;6252448;22;20641;-79
2023/01/08 07:31:26;;;;;;;34.07;20.00;;;;;;;2.80;100.00;99033.34;6279710;22;20212;-79
2023/01/08 07:33:53;;;;;;;37.30;21.03;;;;;;;2.80;100.00;99038.63;6279573;22;20216;-80
2023/01/08 07:36:21;;;;;;;36.67;20.67;;;;;;;2.83;100.00;99056.78;6251515;22;20271;-80
2023/01/08 07:38:48;;;;;;;31.97;20.13;;;;;;;2.80;100.00;99059.00;6252760;22;20204;-79
2023/01/08 07:41:16;;;;;;;32.33;19.90;;;;;;;2.89;100.00;99068.47;6277064;22;20274;-79
2023/01/08 07:43:42;;;;;;;30.93;20.63;;;;;;;2.87;100.00;99066.00;6278769;22;20231;-80
2023/01/08 07:46:09;;;;;;;30.17;19.80;;;;;;;2.90;100.00;99065.63;6251338;22;20208;-79
2023/01/08 07:48:36;;;;;;;31.10;18.67;;;;;;;2.97;100.00;99061.25;6278926;22;20257;-79
2023/01/08 07:51:04;;;;;;;30.80;18.83;;;;;;;2.98;100.00;99060.25;6278009;22;20287;-80
2023/01/08 07:53:31;;;;;;;29.00;18.60;;;;;;;3.12;100.00;99052.47;6251621;22;20208;-80
2023/01/08 07:56:02;;;;;;;30.03;18.50;;;;;;;3.17;100.00;99039.50;6279011;22;20208;-81
2023/01/08 07:58:29;;;;;;;31.33;18.53;;;;;;;3.23;100.00;99044.84;6188849;22;20192;-80
2023/01/08 08:00:56;;;;;;;30.60;18.53;;;;;;;3.24;100.00;99033.25;6251685;22;20227;-80
2023/01/08 08:03:24;;;;;;;36.33;17.83;;;;;;;3.30;100.00;99037.81;6279267;22;20185;-80
2023/01/08 08:05:51;;;;;;;32.33;17.70;;;;;;;3.34;100.00;99033.78;6278542;22;20208;-80
2023/01/08 08:08:18;;;;;;;35.07;20.43;;;;;;;3.36;100.00;99029.09;6278211;22;20204;-80
2023/01/08 08:10:46;;;;;;;36.93;19.40;;;;;;;3.40;100.00;99024.28;6278947;22;20208;-79
2023/01/08 08:13:12;;;;;;;28.53;18.70;;;;;;;3.38;100.00;99007.75;6277963;22;20207;-80
2023/01/08 08:15:40;;;;;;;27.80;17.27;;;;;;;3.52;100.00;99012.16;6278159;22;20208;-79
2023/01/08 08:18:07;;;;;;;27.40;18.30;;;;;;;3.50;100.00;99009.69;6278342;22;20212;-80
2023/01/08 08:20:34;;;;;;;27.97;18.30;;;;;;;3.50;100.00;99009.69;6251529;22;20196;-79
2023/01/08 08:23:02;;;;;;;26.13;17.93;;;;;;;3.51;100.00;99003.38;6226513;22;20214;-80
2023/01/08 08:25:29;;;;;;;28.63;18.53;;;;;;;3.55;100.00;98995.88;6251534;22;20210;-80
2023/01/08 08:27:57;;;;;;;28.80;18.00;;;;;;;3.56;100.00;98989.56;6278323;22;20208;-80
2023/01/08 08:30:25;;;;;;;29.37;18.67;;;;;;;3.60;100.00;98995.31;6277785;22;20224;-80
2023/01/08 08:32:53;;;;;;;29.53;18.87;;;;;;;3.51;100.00;98984.84;6279268;22;20266;-80
2023/01/08 08:35:20;;;;;;;29.07;18.17;;;;;;;3.53;100.00;98990.78;6278728;22;20287;-80
2023/01/08 08:37:46;;;;;;;28.67;19.50;;;;;;;3.55;100.00;98990.56;6278231;22;20204;-80
2023/01/08 08:40:13;;;;;;;28.97;19.53;;;;;;;3.53;100.00;98990.78;6264478;22;20203;-79
2023/01/08 08:42:39;;;;;;;33.00;21.50;;;;;;;3.49;100.00;98989.53;6251322;22;20208;-80
2023/01/08 08:45:07;;;;;;;32.63;22.50;;;;;;;3.54;100.00;98976.53;6278116;22;20588;-79
2023/01/08 08:47:33;;;;;;;28.50;19.87;;;;;;;3.59;100.00;98973.31;6265067;22;20571;-80
2023/01/08 08:50:01;;;;;;;32.73;22.87;;;;;;;3.64;100.00;98967.44;6251768;22;20208;-79
2023/01/08 08:52:29;;;;;;;33.87;24.93;;;;;;;3.71;100.00;98974.44;6277683;22;20206;-80
2023/01/08 08:54:56;;;;;;;28.27;19.63;;;;;;;3.77;100.00;98972.84;6278807;22;20212;-80
2023/01/08 08:57:23;;;;;;;29.77;19.17;;;;;;;3.70;100.00;98969.31;6278917;22;20204;-80
2023/01/08 08:59:49;;;;;;;26.20;17.77;;;;;;;3.72;100.00;98978.72;6251517;22;20208;-80
2023/01/08 09:02:16;;;;;;;28.47;19.03;;;;;;;3.68;100.00;98966.06;6278388;22;20228;-77
2023/01/08 09:04:43;;;;;;;27.77;18.10;;;;;;;3.75;100.00;98956.31;6276281;22;20519;-78
2023/01/08 09:07:10;;;;;;;27.33;17.83;;;;;;;3.73;100.00;98961.00;6276146;22;20203;-78
2023/01/08 09:09:36;;;;;;;27.27;17.70;;;;;;;3.70;100.00;98964.84;6255425;22;20215;-79
2023/01/08 09:12:03;;;;;;;29.00;18.53;;;;;;;3.64;100.00;98968.25;6253886;22;20246;-81
2023/01/08 09:14:29;;;;;;;31.47;18.37;;;;;;;3.67;100.00;98957.28;6281229;22;20204;-79
2023/01/08 09:16:56;;;;;;;25.63;17.67;;;;;;;3.66;100.00;98954.81;6280922;22;20295;-80
2023/01/08 09:19:23;;;;;;;27.33;17.67;;;;;;;3.62;100.00;98959.69;6281568;22;20275;-80
2023/01/08 09:21:50;;;;;;;30.10;20.70;;;;;;;3.52;100.00;98956.53;6253195;22;20224;-80
2023/01/08 09:24:16;;;;;;;29.27;19.93;;;;;;;3.50;100.00;98942.66;6279404;22;20653;-80
2023/01/08 09:26:43;;;;;;;29.03;17.97;;;;;;;3.55;100.00;98943.72;6279671;22;20224;-80
2023/01/08 09:29:09;;;;;;;24.10;16.77;;;;;;;3.51;100.00;98937.16;6279501;22;20652;-80
2023/01/08 09:31:36;;;;;;;27.00;17.33;;;;;;;3.54;100.00;98934.16;6278655;22;20284;-81
2023/01/08 09:34:03;;;;;;;26.97;17.90;;;;;;;3.61;100.00;98931.53;6279715;22;20211;-81
2023/01/08 09:36:29;;;;;;;24.73;16.67;;;;;;;3.84;100.00;98928.66;6280222;22;20287;-80
2023/01/08 09:38:56;;;;;;;25.23;16.77;;;;;;;3.88;100.00;98921.94;6280833;22;20260;-80
2023/01/08 09:41:43;;;;;;;24.80;16.67;;;;;;;3.97;100.00;98918.97;6280923;22;20212;-80
2023/01/08 09:44:15;;;;;;;21.77;15.10;;;;;;;3.99;100.00;98913.47;6278857;22;20200;-80
2023/01/08 09:46:41;;;;;;;25.60;15.60;;;;;;;4.03;100.00;98912.06;6251949;22;20278;-80
2023/01/08 09:49:13;;;;;;;23.20;15.37;;;;;;;4.15;100.00;98899.09;6251371;22;20594;-80
2023/01/08 09:51:40;;;;;;;24.23;16.33;;;;;;;4.24;100.00;98901.38;6277749;22;20230;-80
2023/01/08 09:54:13;;;;;;;25.17;17.50;;;;;;;4.28;100.00;98892.03;6275758;22;20656;-80
2023/01/08 09:56:41;;;;;;;24.27;15.70;;;;;;;4.39;100.00;98890.63;6250765;22;20204;-79
2023/01/08 09:59:11;;;;;;;27.10;16.37;;;;;;;4.50;100.00;98883.94;6276961;22;20204;-80
2023/01/08 10:01:39;;;;;;;28.13;18.93;;;;;;;4.55;100.00;98874.38;6250701;22;20204;-80
2023/01/08 10:04:14;;;;;;;22.53;15.87;;;;;;;4.55;100.00;98865.59;6250702;22;20207;-78
2023/01/08 10:06:48;;;;;;;25.77;17.20;;;;;;;4.64;100.00;98861.75;6276437;22;20643;-80
2023/01/08 10:09:14;;;;;;;26.77;16.60;;;;;;;4.59;100.00;98856.22;6251531;22;20204;-80
2023/01/08 10:11:43;;;;;;;23.50;15.37;;;;;;;4.54;100.00;98848.03;6277979;22;20211;-79
2023/01/08 10:14:25;;;;;;;22.40;15.60;;;;;;;4.41;100.00;98831.06;6211779;22;20216;-80
2023/01/08 10:16:56;;;;;;;25.17;15.50;;;;;;;4.34;100.00;98821.44;6255482;22;20656;-80
2023/01/08 10:19:28;;;;;;;26.97;15.47;;;;;;;4.32;100.00;98813.72;6253091;22;20199;-78
2023/01/08 10:21:56;;;;;;;29.57;15.33;;;;;;;4.36;100.00;98806.97;6275963;22;20203;-77
2023/01/08 10:24:36;;;;;;;23.13;16.00;;;;;;;4.27;100.00;98800.22;6250132;22;20203;-79
2023/01/08 10:27:12;;;;;;;23.37;15.87;;;;;;;4.17;100.00;98796.31;6276415;22;20674;-79
2023/01/08 10:29:38;;;;;;;29.33;18.63;;;;;;;4.24;100.00;98795.31;6249529;22;20530;-79
2023/01/08 10:32:14;;;;;;;29.20;18.97;;;;;;;4.22;100.00;98793.88;6277821;22;20214;-79
2023/01/08 10:34:45;;;;;;;26.87;17.80;;;;;;;4.17;100.00;98796.31;6250238;22;20203;-79
2023/01/08 10:37:20;;;;;;;30.93;18.40;;;;;;;4.21;100.00;98790.41;6280083;22;20234;-79
2023/01/08 10:39:47;;;;;;;23.00;15.83;;;;;;;4.34;100.00;98803.69;6280101;22;20640;-79
2023/01/08 10:42:16;;;;;;;24.93;15.60;;;;;;;4.31;100.00;98801.47;6251817;22;20210;-79
2023/01/08 10:45:12;;;;;;;21.30;14.40;;;;;;;4.33;100.00;98794.13;6279550;22;20220;-79
2023/01/08 10:47:45;;;;;;;24.50;15.20;;;;;;;4.37;100.00;98807.81;6265645;22;20210;-79
2023/01/08 10:50:19;;;;;;;22.77;15.43;;;;;;;4.27;100.00;98813.47;6253184;22;20211;-79
2023/01/08 10:52:54;;;;;;;24.13;15.67;;;;;;;4.27;100.00;98825.91;6255663;22;20203;-79
2023/01/08 11:06:49;;;;;;;23.17;15.70;;;;;;;4.71;100.00;98825.44;6255714;22;20215;-79
2023/01/08 11:09:24;;;;;;;21.00;15.07;;;;;;;4.81;100.00;98824.00;6284580;22;20725;-82
2023/01/08 11:11:52;;;;;;;19.27;14.50;;;;;;;4.70;100.00;98818.50;6259268;22;20212;-81
2023/01/08 11:14:34;;;;;;;21.07;14.83;;;;;;;4.67;100.00;98814.38;6284668;22;20590;-82
2023/01/08 11:17:08;;;;;;;21.83;15.83;;;;;;;4.56;100.00;98807.03;6258090;22;20231;-82
2023/01/08 11:19:35;;;;;;;18.70;14.47;;;;;;;4.58;100.00;98810.28;6232882;22;20238;-82
2023/01/08 11:22:04;;;;;;;20.20;14.20;;;;;;;4.49;100.00;98795.56;6257653;22;20204;-82
2023/01/08 11:24:37;;;;;;;20.53;14.63;;;;;;;4.46;100.00;98787.22;6284294;22;20214;-82
2023/01/08 11:27:08;;;;;;;22.13;14.70;;;;;;;4.39;100.00;98784.53;6257604;22;20211;-82
2023/01/08 11:29:37;;;;;;;22.37;15.17;;;;;;;4.38;100.00;98775.78;6282942;22;20222;-81
2023/01/08 11:32:19;;;;;;;24.40;17.60;;;;;;;4.43;100.00;98785.78;6257300;22;20203;-81
2023/01/08 11:35:06;;;;;;;26.77;17.93;;;;;;;4.42;100.00;98784.16;6285526;22;20234;-82
2023/01/08 11:37:36;;;;;;;26.30;17.57;;;;;;;4.54;100.00;98776.41;6259509;22;20214;-81